sensor_id;sensor_type;location;lat;lon;timestamp;P1;durP1;ratioP1;P2;durP2;ratioP2
72095;SDS011;59968;51.084;16.748;2023-01-26T00:00:04;73.10;;;32.20;;
72095;SDS011;59968;51.084;16.748;2023-01-26T00:02:53;58.60;;;28.10;;
72095;SDS011;59968;51.084;16.748;2023-01-26T00:05:22;54.60;;;23.80;;
72095;SDS011;59968;51.084;16.748;2023-01-26T00:07:50;54.80;;;22.40;;
72095;SDS011;59968;51.084;16.748;2023-01-26T00:10:18;47.80;;;18.60;;
72095;SDS011;59968;51.084;16.748;2023-01-26T00:12:49;45.40;;;16.70;;
72095;SDS011;59968;51.084;16.748;2023-01-26T00:15:32;45.30;;;15.20;;
72095;SDS011;59968;51.084;16.748;2023-01-26T00:18:03;43.70;;;14.70;;
72095;SDS011;59968;51.084;16.748;2023-01-26T00:20:31;42.30;;;14.10;;
72095;SDS011;59968;51.084;16.748;2023-01-26T00:22:59;41.80;;;15.00;;
72095;SDS011;59968;51.084;16.748;2023-01-26T00:25:28;40.80;;;15.00;;
72095;SDS011;59968;51.084;16.748;2023-01-26T00:27:56;43.90;;;15.70;;
72095;SDS011;59968;51.084;16.748;2023-01-26T00:30:25;37.10;;;13.80;;
72095;SDS011;59968;51.084;16.748;2023-01-26T00:32:54;39.40;;;13.50;;
72095;SDS011;59968;51.084;16.748;2023-01-26T00:35:24;39.20;;;12.10;;
72095;SDS011;59968;51.084;16.748;2023-01-26T00:37:52;42.50;;;14.00;;
72095;SDS011;59968;51.084;16.748;2023-01-26T00:40:21;39.80;;;15.10;;
72095;SDS011;59968;51.084;16.748;2023-01-26T00:42:51;38.90;;;14.30;;
72095;SDS011;59968;51.084;16.748;2023-01-26T00:45:21;37.10;;;12.70;;
72095;SDS011;59968;51.084;16.748;2023-01-26T00:47:49;36.20;;;13.80;;
72095;SDS011;59968;51.084;16.748;2023-01-26T00:50:20;35.10;;;13.10;;
72095;SDS011;59968;51.084;16.748;2023-01-26T00:52:49;40.90;;;13.70;;
72095;SDS011;59968;51.084;16.748;2023-01-26T00:55:17;37.10;;;12.90;;
72095;SDS011;59968;51.084;16.748;2023-01-26T00:57:45;36.20;;;13.20;;
72095;SDS011;59968;51.084;16.748;2023-01-26T01:00:13;35.20;;;12.60;;
72095;SDS011;59968;51.084;16.748;2023-01-26T01:02:43;37.80;;;12.50;;
72095;SDS011;59968;51.084;16.748;2023-01-26T01:05:12;41.10;;;15.20;;
72095;SDS011;59968;51.084;16.748;2023-01-26T01:07:40;38.90;;;12.10;;
72095;SDS011;59968;51.084;16.748;2023-01-26T01:10:08;33.90;;;12.20;;
72095;SDS011;59968;51.084;16.748;2023-01-26T01:12:37;38.60;;;13.90;;
72095;SDS011;59968;51.084;16.748;2023-01-26T01:15:06;40.40;;;15.40;;
72095;SDS011;59968;51.084;16.748;2023-01-26T01:17:35;32.60;;;12.50;;
72095;SDS011;59968;51.084;16.748;2023-01-26T01:20:04;41.30;;;13.50;;
72095;SDS011;59968;51.084;16.748;2023-01-26T01:22:36;40.10;;;13.50;;
72095;SDS011;59968;51.084;16.748;2023-01-26T01:25:05;38.70;;;13.70;;
72095;SDS011;59968;51.084;16.748;2023-01-26T01:27:33;40.80;;;13.00;;
72095;SDS011;59968;51.084;16.748;2023-01-26T01:30:02;40.00;;;13.20;;
72095;SDS011;59968;51.084;16.748;2023-01-26T01:32:35;36.40;;;12.90;;
72095;SDS011;59968;51.084;16.748;2023-01-26T01:35:03;38.70;;;12.90;;
72095;SDS011;59968;51.084;16.748;2023-01-26T01:37:32;36.10;;;11.80;;
72095;SDS011;59968;51.084;16.748;2023-01-26T01:40:00;34.80;;;11.70;;
72095;SDS011;59968;51.084;16.748;2023-01-26T01:42:29;32.70;;;11.40;;
72095;SDS011;59968;51.084;16.748;2023-01-26T01:48:16;30.70;;;10.40;;
72095;SDS011;59968;51.084;16.748;2023-01-26T01:50:53;35.20;;;11.70;;
72095;SDS011;59968;51.084;16.748;2023-01-26T01:53:29;34.80;;;12.50;;
72095;SDS011;59968;51.084;16.748;2023-01-26T01:56:02;34.20;;;11.50;;
72095;SDS011;59968;51.084;16.748;2023-01-26T01:58:36;33.60;;;12.10;;
72095;SDS011;59968;51.084;16.748;2023-01-26T02:01:07;39.60;;;12.10;;
72095;SDS011;59968;51.084;16.748;2023-01-26T02:03:37;34.90;;;12.00;;
72095;SDS011;59968;51.084;16.748;2023-01-26T02:08:43;35.30;;;12.00;;
72095;SDS011;59968;51.084;16.748;2023-01-26T02:11:23;32.10;;;11.40;;
72095;SDS011;59968;51.084;16.748;2023-01-26T02:14:06;32.70;;;11.40;;
72095;SDS011;59968;51.084;16.748;2023-01-26T02:16:37;34.60;;;11.10;;
72095;SDS011;59968;51.084;16.748;2023-01-26T02:19:09;34.20;;;12.30;;
72095;SDS011;59968;51.084;16.748;2023-01-26T02:21:47;31.60;;;11.00;;
72095;SDS011;59968;51.084;16.748;2023-01-26T02:24:21;34.30;;;11.60;;
72095;SDS011;59968;51.084;16.748;2023-01-26T02:26:56;36.60;;;12.00;;
72095;SDS011;59968;51.084;16.748;2023-01-26T02:29:24;34.20;;;11.50;;
72095;SDS011;59968;51.084;16.748;2023-01-26T02:31:53;36.50;;;12.00;;
72095;SDS011;59968;51.084;16.748;2023-01-26T02:34:23;34.80;;;11.40;;
72095;SDS011;59968;51.084;16.748;2023-01-26T02:36:56;40.50;;;11.90;;
72095;SDS011;59968;51.084;16.748;2023-01-26T02:42:30;36.30;;;11.30;;
72095;SDS011;59968;51.084;16.748;2023-01-26T02:45:12;37.80;;;12.20;;
72095;SDS011;59968;51.084;16.748;2023-01-26T02:47:42;35.60;;;12.00;;
72095;SDS011;59968;51.084;16.748;2023-01-26T02:50:12;35.80;;;12.00;;
72095;SDS011;59968;51.084;16.748;2023-01-26T02:52:42;37.90;;;11.70;;
72095;SDS011;59968;51.084;16.748;2023-01-26T02:55:19;38.20;;;12.00;;
72095;SDS011;59968;51.084;16.748;2023-01-26T03:00:38;36.40;;;11.70;;
72095;SDS011;59968;51.084;16.748;2023-01-26T03:03:14;37.30;;;12.20;;
72095;SDS011;59968;51.084;16.748;2023-01-26T03:05:45;42.10;;;11.80;;
72095;SDS011;59968;51.084;16.748;2023-01-26T03:08:14;34.70;;;11.80;;
72095;SDS011;59968;51.084;16.748;2023-01-26T03:10:43;34.40;;;11.30;;
72095;SDS011;59968;51.084;16.748;2023-01-26T03:13:14;35.80;;;11.50;;
72095;SDS011;59968;51.084;16.748;2023-01-26T03:15:43;35.20;;;11.40;;
72095;SDS011;59968;51.084;16.748;2023-01-26T03:18:21;38.10;;;12.00;;
72095;SDS011;59968;51.084;16.748;2023-01-26T03:21:14;34.80;;;11.10;;
72095;SDS011;59968;51.084;16.748;2023-01-26T03:24:04;33.60;;;10.80;;
72095;SDS011;59968;51.084;16.748;2023-01-26T03:27:18;39.30;;;11.50;;
72095;SDS011;59968;51.084;16.748;2023-01-26T03:30:00;42.50;;;12.10;;
72095;SDS011;59968;51.084;16.748;2023-01-26T03:32:29;40.90;;;11.90;;
72095;SDS011;59968;51.084;16.748;2023-01-26T03:34:58;41.50;;;11.30;;
72095;SDS011;59968;51.084;16.748;2023-01-26T03:37:26;38.50;;;11.90;;
72095;SDS011;59968;51.084;16.748;2023-01-26T03:40:04;38.10;;;12.10;;
72095;SDS011;59968;51.084;16.748;2023-01-26T03:42:51;36.10;;;11.60;;
72095;SDS011;59968;51.084;16.748;2023-01-26T03:45:38;35.70;;;11.00;;
72095;SDS011;59968;51.084;16.748;2023-01-26T03:48:26;39.00;;;12.40;;
72095;SDS011;59968;51.084;16.748;2023-01-26T03:51:14;35.90;;;12.10;;
72095;SDS011;59968;51.084;16.748;2023-01-26T03:54:01;36.50;;;11.00;;
72095;SDS011;59968;51.084;16.748;2023-01-26T03:56:48;36.20;;;10.90;;
72095;SDS011;59968;51.084;16.748;2023-01-26T03:59:17;37.30;;;12.40;;
72095;SDS011;59968;51.084;16.748;2023-01-26T04:01:53;39.50;;;12.30;;
72095;SDS011;59968;51.084;16.748;2023-01-26T04:04:40;36.80;;;11.30;;
72095;SDS011;59968;51.084;16.748;2023-01-26T04:07:27;38.80;;;12.30;;
72095;SDS011;59968;51.084;16.748;2023-01-26T04:10:14;37.00;;;11.30;;
72095;SDS011;59968;51.084;16.748;2023-01-26T04:12:43;39.00;;;12.20;;
72095;SDS011;59968;51.084;16.748;2023-01-26T04:15:35;33.40;;;11.40;;
72095;SDS011;59968;51.084;16.748;2023-01-26T04:18:22;33.70;;;11.70;;
72095;SDS011;59968;51.084;16.748;2023-01-26T04:21:09;35.60;;;12.00;;
72095;SDS011;59968;51.084;16.748;2023-01-26T04:23:57;31.30;;;10.90;;
72095;SDS011;59968;51.084;16.748;2023-01-26T04:26:28;35.20;;;11.50;;
72095;SDS011;59968;51.084;16.748;2023-01-26T04:29:12;35.30;;;11.40;;
72095;SDS011;59968;51.084;16.748;2023-01-26T04:31:42;38.70;;;12.40;;
72095;SDS011;59968;51.084;16.748;2023-01-26T04:34:14;31.20;;;11.10;;
72095;SDS011;59968;51.084;16.748;2023-01-26T04:36:42;32.90;;;11.20;;
72095;SDS011;59968;51.084;16.748;2023-01-26T04:39:10;33.60;;;10.60;;
72095;SDS011;59968;51.084;16.748;2023-01-26T04:41:43;34.40;;;11.60;;
72095;SDS011;59968;51.084;16.748;2023-01-26T04:44:14;33.00;;;11.10;;
72095;SDS011;59968;51.084;16.748;2023-01-26T04:46:44;33.40;;;11.00;;
72095;SDS011;59968;51.084;16.748;2023-01-26T04:49:14;32.80;;;12.10;;
72095;SDS011;59968;51.084;16.748;2023-01-26T04:51:42;30.60;;;11.10;;
72095;SDS011;59968;51.084;16.748;2023-01-26T04:54:11;32.90;;;12.00;;
72095;SDS011;59968;51.084;16.748;2023-01-26T04:56:43;33.10;;;11.90;;
72095;SDS011;59968;51.084;16.748;2023-01-26T04:59:11;34.50;;;11.40;;
72095;SDS011;59968;51.084;16.748;2023-01-26T05:01:41;36.00;;;12.20;;
72095;SDS011;59968;51.084;16.748;2023-01-26T05:04:10;29.70;;;10.50;;
72095;SDS011;59968;51.084;16.748;2023-01-26T05:06:42;26.60;;;9.90;;
72095;SDS011;59968;51.084;16.748;2023-01-26T05:09:11;28.60;;;10.40;;
72095;SDS011;59968;51.084;16.748;2023-01-26T05:11:42;26.20;;;9.40;;
72095;SDS011;59968;51.084;16.748;2023-01-26T05:14:37;22.60;;;9.40;;
72095;SDS011;59968;51.084;16.748;2023-01-26T05:17:18;21.80;;;8.90;;
72095;SDS011;59968;51.084;16.748;2023-01-26T05:19:46;24.00;;;9.60;;
72095;SDS011;59968;51.084;16.748;2023-01-26T05:22:17;26.20;;;10.40;;
72095;SDS011;59968;51.084;16.748;2023-01-26T05:25:06;27.70;;;10.60;;
72095;SDS011;59968;51.084;16.748;2023-01-26T05:27:53;24.90;;;10.20;;
72095;SDS011;59968;51.084;16.748;2023-01-26T05:30:22;25.80;;;11.40;;
72095;SDS011;59968;51.084;16.748;2023-01-26T05:32:51;28.80;;;11.00;;
72095;SDS011;59968;51.084;16.748;2023-01-26T05:35:22;24.70;;;10.10;;
72095;SDS011;59968;51.084;16.748;2023-01-26T05:37:50;24.00;;;9.40;;
72095;SDS011;59968;51.084;16.748;2023-01-26T05:40:19;24.60;;;9.80;;
72095;SDS011;59968;51.084;16.748;2023-01-26T05:42:48;24.90;;;9.50;;
72095;SDS011;59968;51.084;16.748;2023-01-26T05:45:24;24.90;;;10.10;;
72095;SDS011;59968;51.084;16.748;2023-01-26T05:47:55;25.70;;;10.30;;
72095;SDS011;59968;51.084;16.748;2023-01-26T05:50:24;25.10;;;10.80;;
72095;SDS011;59968;51.084;16.748;2023-01-26T05:53:16;25.40;;;9.80;;
72095;SDS011;59968;51.084;16.748;2023-01-26T05:55:45;25.60;;;9.80;;
72095;SDS011;59968;51.084;16.748;2023-01-26T05:58:13;23.00;;;9.80;;
72095;SDS011;59968;51.084;16.748;2023-01-26T06:00:41;21.90;;;8.70;;
72095;SDS011;59968;51.084;16.748;2023-01-26T06:03:15;21.90;;;9.10;;
72095;SDS011;59968;51.084;16.748;2023-01-26T06:05:43;24.60;;;9.20;;
72095;SDS011;59968;51.084;16.748;2023-01-26T06:08:27;21.70;;;8.80;;
72095;SDS011;59968;51.084;16.748;2023-01-26T06:11:15;23.30;;;9.90;;
